sensor_id;sensor_type;location;lat;lon;timestamp;P1;durP1;ratioP1;P2;durP2;ratioP2
11616;SDS011;5864;52.998;9.068;2023-07-31T00:01:56;7.20;;;2.60;;
11616;SDS011;5864;52.998;9.068;2023-07-31T00:04:43;5.73;;;2.30;;
11616;SDS011;5864;52.998;9.068;2023-07-31T00:07:28;5.57;;;2.40;;
11616;SDS011;5864;52.998;9.068;2023-07-31T00:10:14;5.93;;;2.43;;
11616;SDS011;5864;52.998;9.068;2023-07-31T00:13:00;4.40;;;2.30;;
11616;SDS011;5864;52.998;9.068;2023-07-31T00:15:45;6.83;;;2.20;;
11616;SDS011;5864;52.998;9.068;2023-07-31T00:18:31;6.77;;;2.43;;
11616;SDS011;5864;52.998;9.068;2023-07-31T00:21:18;10.03;;;2.73;;
11616;SDS011;5864;52.998;9.068;2023-07-31T00:24:04;6.80;;;2.20;;
11616;SDS011;5864;52.998;9.068;2023-07-31T00:26:49;6.13;;;2.40;;
11616;SDS011;5864;52.998;9.068;2023-07-31T00:29:34;4.63;;;2.13;;
11616;SDS011;5864;52.998;9.068;2023-07-31T00:32:20;4.90;;;2.43;;
11616;SDS011;5864;52.998;9.068;2023-07-31T00:35:06;4.57;;;2.33;;
11616;SDS011;5864;52.998;9.068;2023-07-31T00:37:53;5.60;;;2.60;;
11616;SDS011;5864;52.998;9.068;2023-07-31T00:40:39;9.43;;;2.73;;
11616;SDS011;5864;52.998;9.068;2023-07-31T00:43:25;4.70;;;2.20;;
11616;SDS011;5864;52.998;9.068;2023-07-31T00:46:10;5.73;;;2.73;;
11616;SDS011;5864;52.998;9.068;2023-07-31T00:48:56;3.17;;;2.30;;
11616;SDS011;5864;52.998;9.068;2023-07-31T00:51:42;7.90;;;2.83;;
11616;SDS011;5864;52.998;9.068;2023-07-31T00:54:29;8.10;;;2.90;;
11616;SDS011;5864;52.998;9.068;2023-07-31T00:57:15;5.07;;;2.43;;
11616;SDS011;5864;52.998;9.068;2023-07-31T01:00:00;3.90;;;2.10;;
11616;SDS011;5864;52.998;9.068;2023-07-31T01:02:46;5.90;;;2.27;;
11616;SDS011;5864;52.998;9.068;2023-07-31T01:05:33;6.00;;;2.30;;
11616;SDS011;5864;52.998;9.068;2023-07-31T01:08:29;4.80;;;2.00;;
11616;SDS011;5864;52.998;9.068;2023-07-31T01:11:24;3.50;;;2.03;;
11616;SDS011;5864;52.998;9.068;2023-07-31T01:14:12;5.40;;;2.40;;
11616;SDS011;5864;52.998;9.068;2023-07-31T01:16:58;4.30;;;2.50;;
11616;SDS011;5864;52.998;9.068;2023-07-31T01:19:44;3.63;;;2.10;;
11616;SDS011;5864;52.998;9.068;2023-07-31T01:22:34;3.40;;;1.90;;
11616;SDS011;5864;52.998;9.068;2023-07-31T01:25:35;3.00;;;2.23;;
11616;SDS011;5864;52.998;9.068;2023-07-31T01:28:46;3.43;;;1.80;;
11616;SDS011;5864;52.998;9.068;2023-07-31T01:31:38;4.30;;;1.87;;
11616;SDS011;5864;52.998;9.068;2023-07-31T01:34:25;4.60;;;2.27;;
11616;SDS011;5864;52.998;9.068;2023-07-31T01:37:12;2.27;;;2.07;;
11616;SDS011;5864;52.998;9.068;2023-07-31T01:39:58;3.97;;;2.27;;
11616;SDS011;5864;52.998;9.068;2023-07-31T01:42:44;5.50;;;2.13;;
11616;SDS011;5864;52.998;9.068;2023-07-31T01:45:31;3.57;;;2.00;;
11616;SDS011;5864;52.998;9.068;2023-07-31T01:48:16;3.90;;;2.00;;
11616;SDS011;5864;52.998;9.068;2023-07-31T01:51:02;3.23;;;2.03;;
11616;SDS011;5864;52.998;9.068;2023-07-31T01:53:47;2.43;;;1.80;;
11616;SDS011;5864;52.998;9.068;2023-07-31T01:56:33;5.20;;;2.43;;
11616;SDS011;5864;52.998;9.068;2023-07-31T01:59:19;2.90;;;2.30;;
11616;SDS011;5864;52.998;9.068;2023-07-31T02:02:06;2.40;;;2.00;;
11616;SDS011;5864;52.998;9.068;2023-07-31T02:04:52;3.47;;;2.10;;
11616;SDS011;5864;52.998;9.068;2023-07-31T02:07:37;4.13;;;2.00;;
11616;SDS011;5864;52.998;9.068;2023-07-31T02:10:23;2.97;;;2.30;;
11616;SDS011;5864;52.998;9.068;2023-07-31T02:13:08;3.40;;;2.10;;
11616;SDS011;5864;52.998;9.068;2023-07-31T02:15:55;3.97;;;2.30;;
11616;SDS011;5864;52.998;9.068;2023-07-31T02:18:42;3.73;;;2.03;;
11616;SDS011;5864;52.998;9.068;2023-07-31T02:21:28;3.73;;;2.13;;
11616;SDS011;5864;52.998;9.068;2023-07-31T02:24:14;4.57;;;2.40;;
11616;SDS011;5864;52.998;9.068;2023-07-31T02:27:00;3.17;;;2.40;;
11616;SDS011;5864;52.998;9.068;2023-07-31T02:29:45;3.73;;;2.77;;
11616;SDS011;5864;52.998;9.068;2023-07-31T02:32:31;5.80;;;2.63;;
11616;SDS011;5864;52.998;9.068;2023-07-31T02:35:18;4.03;;;3.00;;
11616;SDS011;5864;52.998;9.068;2023-07-31T02:38:04;6.03;;;3.03;;
11616;SDS011;5864;52.998;9.068;2023-07-31T02:40:49;3.20;;;2.80;;
11616;SDS011;5864;52.998;9.068;2023-07-31T02:43:35;4.07;;;3.07;;
11616;SDS011;5864;52.998;9.068;2023-07-31T02:46:21;3.07;;;2.77;;
11616;SDS011;5864;52.998;9.068;2023-07-31T02:49:08;3.40;;;3.10;;
11616;SDS011;5864;52.998;9.068;2023-07-31T02:51:55;3.77;;;3.00;;
11616;SDS011;5864;52.998;9.068;2023-07-31T02:54:40;4.47;;;3.20;;
11616;SDS011;5864;52.998;9.068;2023-07-31T02:57:26;3.57;;;2.90;;
11616;SDS011;5864;52.998;9.068;2023-07-31T03:00:11;3.43;;;2.80;;
11616;SDS011;5864;52.998;9.068;2023-07-31T03:02:57;3.00;;;2.63;;
11616;SDS011;5864;52.998;9.068;2023-07-31T03:05:43;4.13;;;2.63;;
11616;SDS011;5864;52.998;9.068;2023-07-31T03:08:42;4.17;;;3.27;;
11616;SDS011;5864;52.998;9.068;2023-07-31T03:11:27;3.60;;;2.90;;
11616;SDS011;5864;52.998;9.068;2023-07-31T03:14:13;2.80;;;2.50;;
11616;SDS011;5864;52.998;9.068;2023-07-31T03:16:59;3.40;;;2.90;;
11616;SDS011;5864;52.998;9.068;2023-07-31T03:19:44;3.50;;;2.80;;
11616;SDS011;5864;52.998;9.068;2023-07-31T03:22:30;3.30;;;3.00;;
11616;SDS011;5864;52.998;9.068;2023-07-31T03:25:16;4.20;;;2.90;;
11616;SDS011;5864;52.998;9.068;2023-07-31T03:28:03;3.07;;;2.77;;
11616;SDS011;5864;52.998;9.068;2023-07-31T03:30:48;2.83;;;2.50;;
11616;SDS011;5864;52.998;9.068;2023-07-31T03:33:35;4.10;;;3.13;;
11616;SDS011;5864;52.998;9.068;2023-07-31T03:36:20;3.23;;;2.83;;
11616;SDS011;5864;52.998;9.068;2023-07-31T03:39:06;3.83;;;3.33;;
11616;SDS011;5864;52.998;9.068;2023-07-31T03:41:53;3.67;;;3.37;;
11616;SDS011;5864;52.998;9.068;2023-07-31T03:44:38;2.93;;;2.63;;
11616;SDS011;5864;52.998;9.068;2023-07-31T03:47:24;7.23;;;3.50;;
11616;SDS011;5864;52.998;9.068;2023-07-31T03:50:09;3.73;;;3.40;;
11616;SDS011;5864;52.998;9.068;2023-07-31T03:52:55;3.27;;;2.97;;
11616;SDS011;5864;52.998;9.068;2023-07-31T03:55:41;3.47;;;2.93;;
11616;SDS011;5864;52.998;9.068;2023-07-31T03:58:28;4.87;;;3.60;;
11616;SDS011;5864;52.998;9.068;2023-07-31T04:01:13;4.00;;;3.70;;
11616;SDS011;5864;52.998;9.068;2023-07-31T04:03:59;3.60;;;3.30;;
11616;SDS011;5864;52.998;9.068;2023-07-31T04:06:44;4.83;;;3.97;;
11616;SDS011;5864;52.998;9.068;2023-07-31T04:09:30;5.40;;;4.13;;
11616;SDS011;5864;52.998;9.068;2023-07-31T04:12:15;4.67;;;4.17;;
11616;SDS011;5864;52.998;9.068;2023-07-31T04:15:02;4.50;;;4.10;;
11616;SDS011;5864;52.998;9.068;2023-07-31T04:17:48;4.20;;;3.80;;
11616;SDS011;5864;52.998;9.068;2023-07-31T04:20:35;7.10;;;4.10;;
11616;SDS011;5864;52.998;9.068;2023-07-31T04:23:21;6.27;;;4.23;;
11616;SDS011;5864;52.998;9.068;2023-07-31T04:26:07;4.70;;;4.30;;
11616;SDS011;5864;52.998;9.068;2023-07-31T04:28:52;5.13;;;4.30;;
11616;SDS011;5864;52.998;9.068;2023-07-31T04:31:39;6.20;;;4.90;;
11616;SDS011;5864;52.998;9.068;2023-07-31T04:34:24;6.10;;;5.50;;
11616;SDS011;5864;52.998;9.068;2023-07-31T04:37:11;7.17;;;6.50;;
11616;SDS011;5864;52.998;9.068;2023-07-31T04:39:56;8.10;;;5.80;;
11616;SDS011;5864;52.998;9.068;2023-07-31T04:42:43;6.27;;;5.67;;
11616;SDS011;5864;52.998;9.068;2023-07-31T04:45:28;6.77;;;6.07;;
11616;SDS011;5864;52.998;9.068;2023-07-31T04:48:15;6.30;;;5.70;;
11616;SDS011;5864;52.998;9.068;2023-07-31T04:51:01;5.57;;;5.10;;
11616;SDS011;5864;52.998;9.068;2023-07-31T04:53:46;5.80;;;5.23;;
11616;SDS011;5864;52.998;9.068;2023-07-31T04:56:32;5.70;;;5.20;;
11616;SDS011;5864;52.998;9.068;2023-07-31T04:59:18;6.07;;;5.47;;
11616;SDS011;5864;52.998;9.068;2023-07-31T05:02:03;5.77;;;5.17;;
11616;SDS011;5864;52.998;9.068;2023-07-31T05:04:51;5.93;;;5.13;;
11616;SDS011;5864;52.998;9.068;2023-07-31T05:07:37;7.10;;;4.80;;
11616;SDS011;5864;52.998;9.068;2023-07-31T05:10:23;5.23;;;4.60;;
11616;SDS011;5864;52.998;9.068;2023-07-31T05:13:08;5.27;;;4.30;;
11616;SDS011;5864;52.998;9.068;2023-07-31T05:15:54;3.90;;;3.37;;
11616;SDS011;5864;52.998;9.068;2023-07-31T05:18:39;3.77;;;3.47;;
11616;SDS011;5864;52.998;9.068;2023-07-31T05:21:27;3.30;;;3.00;;
11616;SDS011;5864;52.998;9.068;2023-07-31T05:24:13;4.83;;;4.13;;
11616;SDS011;5864;52.998;9.068;2023-07-31T05:26:59;4.70;;;4.20;;
11616;SDS011;5864;52.998;9.068;2023-07-31T05:29:44;4.10;;;3.80;;
11616;SDS011;5864;52.998;9.068;2023-07-31T05:32:31;3.77;;;3.33;;
11616;SDS011;5864;52.998;9.068;2023-07-31T05:35:16;4.20;;;2.93;;
11616;SDS011;5864;52.998;9.068;2023-07-31T05:38:03;3.80;;;2.80;;
11616;SDS011;5864;52.998;9.068;2023-07-31T05:40:49;3.10;;;2.80;;
11616;SDS011;5864;52.998;9.068;2023-07-31T05:43:34;2.60;;;2.40;;
11616;SDS011;5864;52.998;9.068;2023-07-31T05:46:20;3.03;;;2.47;;
11616;SDS011;5864;52.998;9.068;2023-07-31T05:49:06;2.50;;;2.30;;
11616;SDS011;5864;52.998;9.068;2023-07-31T05:51:52;2.40;;;2.20;;
11616;SDS011;5864;52.998;9.068;2023-07-31T05:54:39;2.60;;;2.20;;
11616;SDS011;5864;52.998;9.068;2023-07-31T05:57:24;2.10;;;1.97;;
11616;SDS011;5864;52.998;9.068;2023-07-31T06:00:11;2.00;;;1.90;;
11616;SDS011;5864;52.998;9.068;2023-07-31T06:02:57;2.20;;;2.00;;
11616;SDS011;5864;52.998;9.068;2023-07-31T06:05:43;1.80;;;1.70;;
11616;SDS011;5864;52.998;9.068;2023-07-31T06:08:28;2.33;;;1.70;;
11616;SDS011;5864;52.998;9.068;2023-07-31T06:11:15;1.83;;;1.70;;
11616;SDS011;5864;52.998;9.068;2023-07-31T06:14:01;2.73;;;1.40;;
11616;SDS011;5864;52.998;9.068;2023-07-31T06:16:47;1.70;;;1.60;;
11616;SDS011;5864;52.998;9.068;2023-07-31T06:19:32;2.03;;;1.70;;
11616;SDS011;5864;52.998;9.068;2023-07-31T06:22:18;1.70;;;1.60;;
11616;SDS011;5864;52.998;9.068;2023-07-31T06:25:04;1.90;;;1.70;;
11616;SDS011;5864;52.998;9.068;2023-07-31T06:27:51;2.47;;;2.10;;
11616;SDS011;5864;52.998;9.068;2023-07-31T06:30:37;1.93;;;1.80;;
11616;SDS011;5864;52.998;9.068;2023-07-31T06:33:22;3.10;;;1.70;;
11616;SDS011;5864;52.998;9.068;2023-07-31T06:36:08;1.70;;;1.30;;
11616;SDS011;5864;52.998;9.068;2023-07-31T06:38:54;3.27;;;1.33;;
11616;SDS011;5864;52.998;9.068;2023-07-31T06:41:39;1.67;;;1.47;;
11616;SDS011;5864;52.998;9.068;2023-07-31T06:44:26;2.20;;;1.30;;
11616;SDS011;5864;52.998;9.068;2023-07-31T06:47:11;1.30;;;1.20;;
11616;SDS011;5864;52.998;9.068;2023-07-31T06:49:57;1.97;;;1.10;;
11616;SDS011;5864;52.998;9.068;2023-07-31T06:52:42;1.63;;;1.00;;
11616;SDS011;5864;52.998;9.068;2023-07-31T06:55:28;1.00;;;1.00;;
11616;SDS011;5864;52.998;9.068;2023-07-31T06:58:14;1.23;;;1.00;;
11616;SDS011;5864;52.998;9.068;2023-07-31T07:01:01;1.57;;;1.00;;
11616;SDS011;5864;52.998;9.068;2023-07-31T07:03:47;0.80;;;0.80;;
11616;SDS011;5864;52.998;9.068;2023-07-31T07:06:34;1.00;;;0.80;;
11616;SDS011;5864;52.998;9.068;2023-07-31T07:09:20;2.50;;;1.10;;
11616;SDS011;5864;52.998;9.068;2023-07-31T07:12:05;1.30;;;0.90;;
11616;SDS011;5864;52.998;9.068;2023-07-31T07:14:52;1.20;;;1.03;;
11616;SDS011;5864;52.998;9.068;2023-07-31T07:17:38;1.83;;;1.10;;
11616;SDS011;5864;52.998;9.068;2023-07-31T07:20:24;1.20;;;1.10;;
11616;SDS011;5864;52.998;9.068;2023-07-31T07:23:09;1.20;;;1.10;;
11616;SDS011;5864;52.998;9.068;2023-07-31T07:25:55;2.00;;;1.40;;
11616;SDS011;5864;52.998;9.068;2023-07-31T07:28:40;1.30;;;1.20;;
11616;SDS011;5864;52.998;9.068;2023-07-31T07:31:26;1.47;;;1.37;;
11616;SDS011;5864;52.998;9.068;2023-07-31T07:34:13;2.60;;;1.63;;
11616;SDS011;5864;52.998;9.068;2023-07-31T07:36:58;2.67;;;1.80;;
11616;SDS011;5864;52.998;9.068;2023-07-31T07:39:44;2.63;;;2.10;;
11616;SDS011;5864;52.998;9.068;2023-07-31T07:42:29;3.30;;;2.13;;
11616;SDS011;5864;52.998;9.068;2023-07-31T07:45:15;4.93;;;2.63;;
11616;SDS011;5864;52.998;9.068;2023-07-31T07:48:01;3.67;;;2.60;;
11616;SDS011;5864;52.998;9.068;2023-07-31T07:50:48;3.37;;;2.80;;
11616;SDS011;5864;52.998;9.068;2023-07-31T07:53:34;3.80;;;3.10;;
11616;SDS011;5864;52.998;9.068;2023-07-31T07:56:19;5.37;;;3.50;;
11616;SDS011;5864;52.998;9.068;2023-07-31T07:59:06;7.03;;;3.70;;
11616;SDS011;5864;52.998;9.068;2023-07-31T08:01:51;4.87;;;4.03;;
11616;SDS011;5864;52.998;9.068;2023-07-31T08:04:37;6.07;;;4.30;;
11616;SDS011;5864;52.998;9.068;2023-07-31T08:07:24;7.63;;;4.63;;
11616;SDS011;5864;52.998;9.068;2023-07-31T08:10:09;10.73;;;5.63;;
11616;SDS011;5864;52.998;9.068;2023-07-31T08:12:55;12.57;;;6.10;;
11616;SDS011;5864;52.998;9.068;2023-07-31T08:15:42;12.47;;;6.73;;
11616;SDS011;5864;52.998;9.068;2023-07-31T08:18:27;11.53;;;6.97;;
11616;SDS011;5864;52.998;9.068;2023-07-31T08:21:13;15.40;;;7.37;;
11616;SDS011;5864;52.998;9.068;2023-07-31T08:24:00;12.03;;;7.30;;
11616;SDS011;5864;52.998;9.068;2023-07-31T08:26:45;13.47;;;7.30;;
11616;SDS011;5864;52.998;9.068;2023-07-31T08:29:33;14.53;;;8.67;;
11616;SDS011;5864;52.998;9.068;2023-07-31T08:32:18;18.27;;;8.17;;
11616;SDS011;5864;52.998;9.068;2023-07-31T08:35:04;18.10;;;8.67;;
11616;SDS011;5864;52.998;9.068;2023-07-31T08:37:50;16.07;;;7.87;;
11616;SDS011;5864;52.998;9.068;2023-07-31T08:40:37;13.67;;;7.17;;
11616;SDS011;5864;52.998;9.068;2023-07-31T08:43:23;15.73;;;8.13;;
11616;SDS011;5864;52.998;9.068;2023-07-31T08:46:11;14.43;;;8.43;;
11616;SDS011;5864;52.998;9.068;2023-07-31T08:48:57;17.43;;;8.40;;
11616;SDS011;5864;52.998;9.068;2023-07-31T08:51:44;13.40;;;7.50;;
11616;SDS011;5864;52.998;9.068;2023-07-31T08:54:35;13.30;;;6.70;;
11616;SDS011;5864;52.998;9.068;2023-07-31T08:57:22;15.30;;;7.87;;
11616;SDS011;5864;52.998;9.068;2023-07-31T09:00:09;16.00;;;7.23;;
11616;SDS011;5864;52.998;9.068;2023-07-31T09:02:56;16.07;;;7.40;;
11616;SDS011;5864;52.998;9.068;2023-07-31T09:05:46;14.87;;;7.27;;
11616;SDS011;5864;52.998;9.068;2023-07-31T09:08:32;14.33;;;7.30;;
11616;SDS011;5864;52.998;9.068;2023-07-31T09:11:17;12.73;;;6.40;;
11616;SDS011;5864;52.998;9.068;2023-07-31T09:14:05;13.50;;;7.23;;
11616;SDS011;5864;52.998;9.068;2023-07-31T09:16:54;11.60;;;6.23;;
11616;SDS011;5864;52.998;9.068;2023-07-31T09:19:39;15.67;;;6.27;;
11616;SDS011;5864;52.998;9.068;2023-07-31T09:22:31;13.27;;;5.77;;
11616;SDS011;5864;52.998;9.068;2023-07-31T09:25:18;9.33;;;5.83;;
11616;SDS011;5864;52.998;9.068;2023-07-31T09:28:06;9.60;;;5.40;;
11616;SDS011;5864;52.998;9.068;2023-07-31T09:30:54;10.33;;;4.73;;
11616;SDS011;5864;52.998;9.068;2023-07-31T09:33:47;7.93;;;4.67;;
11616;SDS011;5864;52.998;9.068;2023-07-31T09:36:40;9.67;;;5.10;;
11616;SDS011;5864;52.998;9.068;2023-07-31T09:39:27;7.63;;;4.13;;
11616;SDS011;5864;52.998;9.068;2023-07-31T09:42:14;5.90;;;4.10;;
11616;SDS011;5864;52.998;9.068;2023-07-31T09:45:10;8.30;;;4.00;;
11616;SDS011;5864;52.998;9.068;2023-07-31T09:47:58;6.60;;;3.97;;
11616;SDS011;5864;52.998;9.068;2023-07-31T09:50:44;7.10;;;4.20;;
11616;SDS011;5864;52.998;9.068;2023-07-31T09:53:31;5.20;;;3.40;;
11616;SDS011;5864;52.998;9.068;2023-07-31T09:56:16;7.53;;;3.73;;
11616;SDS011;5864;52.998;9.068;2023-07-31T09:59:04;5.83;;;3.50;;
11616;SDS011;5864;52.998;9.068;2023-07-31T10:01:50;5.97;;;3.67;;
11616;SDS011;5864;52.998;9.068;2023-07-31T10:04:39;6.13;;;3.93;;
11616;SDS011;5864;52.998;9.068;2023-07-31T10:07:27;9.10;;;3.43;;
11616;SDS011;5864;52.998;9.068;2023-07-31T10:10:14;5.83;;;3.77;;
11616;SDS011;5864;52.998;9.068;2023-07-31T10:13:01;7.27;;;3.37;;
11616;SDS011;5864;52.998;9.068;2023-07-31T10:15:47;4.87;;;3.37;;
11616;SDS011;5864;52.998;9.068;2023-07-31T10:18:33;5.70;;;3.47;;
11616;SDS011;5864;52.998;9.068;2023-07-31T10:21:22;4.43;;;3.30;;
11616;SDS011;5864;52.998;9.068;2023-07-31T10:24:07;5.60;;;3.00;;
11616;SDS011;5864;52.998;9.068;2023-07-31T10:26:53;6.43;;;3.10;;
11616;SDS011;5864;52.998;9.068;2023-07-31T10:29:43;5.40;;;3.23;;
11616;SDS011;5864;52.998;9.068;2023-07-31T10:32:31;4.10;;;2.73;;
11616;SDS011;5864;52.998;9.068;2023-07-31T10:35:18;6.50;;;3.20;;
11616;SDS011;5864;52.998;9.068;2023-07-31T10:38:10;4.63;;;2.80;;
11616;SDS011;5864;52.998;9.068;2023-07-31T10:40:59;3.97;;;2.63;;
11616;SDS011;5864;52.998;9.068;2023-07-31T10:43:54;4.67;;;2.63;;
11616;SDS011;5864;52.998;9.068;2023-07-31T10:46:41;2.80;;;2.00;;
11616;SDS011;5864;52.998;9.068;2023-07-31T10:49:28;3.87;;;2.03;;
11616;SDS011;5864;52.998;9.068;2023-07-31T10:52:19;2.00;;;1.80;;
11616;SDS011;5864;52.998;9.068;2023-07-31T10:55:15;2.10;;;1.70;;
11616;SDS011;5864;52.998;9.068;2023-07-31T10:58:13;2.00;;;1.80;;
11616;SDS011;5864;52.998;9.068;2023-07-31T11:01:03;2.73;;;1.80;;
11616;SDS011;5864;52.998;9.068;2023-07-31T11:03:50;1.80;;;1.67;;
11616;SDS011;5864;52.998;9.068;2023-07-31T11:06:36;1.80;;;1.70;;
11616;SDS011;5864;52.998;9.068;2023-07-31T11:09:22;1.87;;;1.60;;
11616;SDS011;5864;52.998;9.068;2023-07-31T11:12:08;2.33;;;1.67;;
11616;SDS011;5864;52.998;9.068;2023-07-31T11:14:56;2.03;;;1.50;;
11616;SDS011;5864;52.998;9.068;2023-07-31T11:17:41;1.10;;;1.10;;
11616;SDS011;5864;52.998;9.068;2023-07-31T11:20:29;1.33;;;1.23;;
11616;SDS011;5864;52.998;9.068;2023-07-31T11:23:16;1.73;;;1.47;;
11616;SDS011;5864;52.998;9.068;2023-07-31T11:26:04;1.00;;;1.00;;
11616;SDS011;5864;52.998;9.068;2023-07-31T11:28:51;2.13;;;1.30;;
11616;SDS011;5864;52.998;9.068;2023-07-31T11:31:41;1.70;;;1.13;;
11616;SDS011;5864;52.998;9.068;2023-07-31T11:34:27;1.00;;;1.00;;
11616;SDS011;5864;52.998;9.068;2023-07-31T11:37:12;1.37;;;1.27;;
11616;SDS011;5864;52.998;9.068;2023-07-31T11:39:59;2.47;;;1.30;;
11616;SDS011;5864;52.998;9.068;2023-07-31T11:42:45;1.07;;;1.00;;
11616;SDS011;5864;52.998;9.068;2023-07-31T11:45:32;1.10;;;1.10;;
11616;SDS011;5864;52.998;9.068;2023-07-31T11:48:19;1.20;;;1.10;;
11616;SDS011;5864;52.998;9.068;2023-07-31T11:51:06;1.77;;;1.10;;
11616;SDS011;5864;52.998;9.068;2023-07-31T11:53:56;1.30;;;1.07;;
11616;SDS011;5864;52.998;9.068;2023-07-31T11:56:43;2.53;;;1.10;;
11616;SDS011;5864;52.998;9.068;2023-07-31T11:59:29;1.20;;;1.13;;
11616;SDS011;5864;52.998;9.068;2023-07-31T12:02:17;1.40;;;1.30;;
11616;SDS011;5864;52.998;9.068;2023-07-31T12:05:03;1.00;;;1.00;;
11616;SDS011;5864;52.998;9.068;2023-07-31T12:07:50;2.00;;;1.00;;
11616;SDS011;5864;52.998;9.068;2023-07-31T12:10:37;0.87;;;0.87;;
11616;SDS011;5864;52.998;9.068;2023-07-31T12:13:24;1.00;;;1.00;;
11616;SDS011;5864;52.998;9.068;2023-07-31T12:16:11;1.10;;;1.10;;
11616;SDS011;5864;52.998;9.068;2023-07-31T12:18:57;1.20;;;1.10;;
11616;SDS011;5864;52.998;9.068;2023-07-31T12:21:44;1.33;;;1.23;;
11616;SDS011;5864;52.998;9.068;2023-07-31T12:24:29;1.10;;;1.03;;
11616;SDS011;5864;52.998;9.068;2023-07-31T12:27:15;1.00;;;1.00;;
11616;SDS011;5864;52.998;9.068;2023-07-31T12:30:02;1.50;;;1.40;;
11616;SDS011;5864;52.998;9.068;2023-07-31T12:32:49;1.10;;;1.10;;
11616;SDS011;5864;52.998;9.068;2023-07-31T12:35:36;1.23;;;1.13;;
11616;SDS011;5864;52.998;9.068;2023-07-31T12:38:23;1.30;;;1.20;;
11616;SDS011;5864;52.998;9.068;2023-07-31T12:41:08;1.30;;;1.20;;
11616;SDS011;5864;52.998;9.068;2023-07-31T12:43:54;1.33;;;1.23;;
11616;SDS011;5864;52.998;9.068;2023-07-31T12:46:41;2.13;;;1.47;;
11616;SDS011;5864;52.998;9.068;2023-07-31T12:49:26;1.50;;;1.40;;
11616;SDS011;5864;52.998;9.068;2023-07-31T12:52:13;1.60;;;1.50;;
11616;SDS011;5864;52.998;9.068;2023-07-31T12:54:59;2.37;;;1.80;;
11616;SDS011;5864;52.998;9.068;2023-07-31T12:57:44;2.10;;;1.90;;
11616;SDS011;5864;52.998;9.068;2023-07-31T13:00:30;4.20;;;1.50;;
11616;SDS011;5864;52.998;9.068;2023-07-31T13:03:15;2.60;;;1.60;;
11616;SDS011;5864;52.998;9.068;2023-07-31T13:06:01;1.57;;;1.47;;
11616;SDS011;5864;52.998;9.068;2023-07-31T13:08:48;1.97;;;1.40;;
11616;SDS011;5864;52.998;9.068;2023-07-31T13:11:33;2.53;;;1.70;;
11616;SDS011;5864;52.998;9.068;2023-07-31T13:14:19;1.90;;;1.80;;
11616;SDS011;5864;52.998;9.068;2023-07-31T13:17:05;2.03;;;1.73;;
11616;SDS011;5864;52.998;9.068;2023-07-31T13:19:50;1.63;;;1.53;;
11616;SDS011;5864;52.998;9.068;2023-07-31T13:22:36;1.57;;;1.47;;
11616;SDS011;5864;52.998;9.068;2023-07-31T13:25:23;1.70;;;1.60;;
11616;SDS011;5864;52.998;9.068;2023-07-31T13:28:08;2.50;;;1.63;;
11616;SDS011;5864;52.998;9.068;2023-07-31T13:30:54;2.20;;;2.00;;
11616;SDS011;5864;52.998;9.068;2023-07-31T13:33:39;2.33;;;2.10;;
11616;SDS011;5864;52.998;9.068;2023-07-31T13:36:25;2.10;;;1.80;;
11616;SDS011;5864;52.998;9.068;2023-07-31T13:39:10;3.13;;;1.83;;
11616;SDS011;5864;52.998;9.068;2023-07-31T13:41:58;3.07;;;2.33;;
11616;SDS011;5864;52.998;9.068;2023-07-31T13:44:43;2.77;;;2.57;;
11616;SDS011;5864;52.998;9.068;2023-07-31T13:47:30;3.07;;;2.37;;
11616;SDS011;5864;52.998;9.068;2023-07-31T13:50:15;3.37;;;2.23;;
11616;SDS011;5864;52.998;9.068;2023-07-31T13:53:04;2.57;;;2.30;;
11616;SDS011;5864;52.998;9.068;2023-07-31T13:55:49;2.60;;;2.40;;
11616;SDS011;5864;52.998;9.068;2023-07-31T13:58:36;3.90;;;2.20;;
11616;SDS011;5864;52.998;9.068;2023-07-31T14:01:21;2.83;;;2.33;;
11616;SDS011;5864;52.998;9.068;2023-07-31T14:04:08;5.83;;;2.50;;
11616;SDS011;5864;52.998;9.068;2023-07-31T14:06:53;2.93;;;2.73;;
11616;SDS011;5864;52.998;9.068;2023-07-31T14:09:40;2.80;;;2.50;;
11616;SDS011;5864;52.998;9.068;2023-07-31T14:12:25;2.80;;;2.57;;
11616;SDS011;5864;52.998;9.068;2023-07-31T14:15:12;3.40;;;3.10;;
11616;SDS011;5864;52.998;9.068;2023-07-31T14:17:58;3.17;;;2.90;;
11616;SDS011;5864;52.998;9.068;2023-07-31T14:20:43;4.57;;;3.07;;
11616;SDS011;5864;52.998;9.068;2023-07-31T14:23:29;3.00;;;2.73;;
11616;SDS011;5864;52.998;9.068;2023-07-31T14:26:15;3.80;;;3.07;;
11616;SDS011;5864;52.998;9.068;2023-07-31T14:29:00;3.40;;;3.03;;
11616;SDS011;5864;52.998;9.068;2023-07-31T14:31:47;4.47;;;3.30;;
11616;SDS011;5864;52.998;9.068;2023-07-31T14:34:33;4.77;;;3.10;;
11616;SDS011;5864;52.998;9.068;2023-07-31T14:37:19;3.70;;;3.00;;
11616;SDS011;5864;52.998;9.068;2023-07-31T14:40:05;3.10;;;2.80;;
11616;SDS011;5864;52.998;9.068;2023-07-31T14:42:51;3.40;;;3.10;;
11616;SDS011;5864;52.998;9.068;2023-07-31T14:45:37;3.30;;;3.00;;
11616;SDS011;5864;52.998;9.068;2023-07-31T14:48:23;3.50;;;3.20;;
11616;SDS011;5864;52.998;9.068;2023-07-31T14:51:10;3.73;;;3.30;;
11616;SDS011;5864;52.998;9.068;2023-07-31T14:53:55;4.53;;;3.60;;
11616;SDS011;5864;52.998;9.068;2023-07-31T14:56:41;3.90;;;2.90;;
11616;SDS011;5864;52.998;9.068;2023-07-31T14:59:26;3.57;;;3.27;;
11616;SDS011;5864;52.998;9.068;2023-07-31T15:02:15;3.67;;;3.30;;
11616;SDS011;5864;52.998;9.068;2023-07-31T15:05:02;3.80;;;3.40;;
11616;SDS011;5864;52.998;9.068;2023-07-31T15:07:47;5.23;;;3.50;;
11616;SDS011;5864;52.998;9.068;2023-07-31T15:10:33;3.93;;;3.53;;
11616;SDS011;5864;52.998;9.068;2023-07-31T15:13:19;6.40;;;4.13;;
11616;SDS011;5864;52.998;9.068;2023-07-31T15:16:04;5.43;;;3.50;;
11616;SDS011;5864;52.998;9.068;2023-07-31T15:18:50;3.30;;;3.00;;
11616;SDS011;5864;52.998;9.068;2023-07-31T15:21:37;5.70;;;3.60;;
11616;SDS011;5864;52.998;9.068;2023-07-31T15:24:23;3.50;;;3.03;;
11616;SDS011;5864;52.998;9.068;2023-07-31T15:27:10;4.43;;;3.67;;
11616;SDS011;5864;52.998;9.068;2023-07-31T15:29:55;3.90;;;3.50;;
11616;SDS011;5864;52.998;9.068;2023-07-31T15:32:41;6.03;;;3.57;;
11616;SDS011;5864;52.998;9.068;2023-07-31T15:35:32;3.57;;;3.27;;
11616;SDS011;5864;52.998;9.068;2023-07-31T15:38:18;4.13;;;3.00;;
11616;SDS011;5864;52.998;9.068;2023-07-31T15:41:05;4.13;;;3.40;;
11616;SDS011;5864;52.998;9.068;2023-07-31T15:43:50;3.57;;;3.27;;
11616;SDS011;5864;52.998;9.068;2023-07-31T15:46:36;5.07;;;3.07;;
11616;SDS011;5864;52.998;9.068;2023-07-31T15:49:21;5.20;;;3.90;;
11616;SDS011;5864;52.998;9.068;2023-07-31T15:52:07;6.33;;;3.40;;
11616;SDS011;5864;52.998;9.068;2023-07-31T15:54:53;3.70;;;3.30;;
11616;SDS011;5864;52.998;9.068;2023-07-31T15:57:39;3.73;;;2.70;;
11616;SDS011;5864;52.998;9.068;2023-07-31T16:00:25;4.07;;;3.27;;
11616;SDS011;5864;52.998;9.068;2023-07-31T16:03:10;4.47;;;3.27;;
11616;SDS011;5864;52.998;9.068;2023-07-31T16:05:56;3.27;;;2.97;;
11616;SDS011;5864;52.998;9.068;2023-07-31T16:08:41;5.30;;;3.23;;
11616;SDS011;5864;52.998;9.068;2023-07-31T16:11:28;2.83;;;2.63;;
11616;SDS011;5864;52.998;9.068;2023-07-31T16:14:14;2.73;;;2.50;;
11616;SDS011;5864;52.998;9.068;2023-07-31T16:16:59;3.13;;;2.83;;
11616;SDS011;5864;52.998;9.068;2023-07-31T16:19:45;3.30;;;2.77;;
11616;SDS011;5864;52.998;9.068;2023-07-31T16:22:30;3.40;;;2.93;;
11616;SDS011;5864;52.998;9.068;2023-07-31T16:25:16;3.57;;;2.77;;
11616;SDS011;5864;52.998;9.068;2023-07-31T16:28:03;2.70;;;2.50;;
11616;SDS011;5864;52.998;9.068;2023-07-31T16:30:48;2.80;;;2.57;;
11616;SDS011;5864;52.998;9.068;2023-07-31T16:33:34;2.73;;;2.50;;
11616;SDS011;5864;52.998;9.068;2023-07-31T16:36:21;3.60;;;2.60;;
11616;SDS011;5864;52.998;9.068;2023-07-31T16:39:07;3.83;;;2.60;;
11616;SDS011;5864;52.998;9.068;2023-07-31T16:41:52;3.97;;;2.83;;
11616;SDS011;5864;52.998;9.068;2023-07-31T16:44:39;3.73;;;2.70;;
11616;SDS011;5864;52.998;9.068;2023-07-31T16:47:25;3.33;;;2.50;;
11616;SDS011;5864;52.998;9.068;2023-07-31T16:50:10;4.53;;;3.10;;
11616;SDS011;5864;52.998;9.068;2023-07-31T16:52:56;3.07;;;2.57;;
11616;SDS011;5864;52.998;9.068;2023-07-31T16:55:41;6.27;;;3.30;;
11616;SDS011;5864;52.998;9.068;2023-07-31T16:58:27;3.87;;;2.93;;